createdAt,value
2022-08-18T00:01:06.259Z,17.92
2022-08-18T00:03:57.161Z,18.01
2022-08-18T00:06:19.655Z,17.95
2022-08-18T00:08:46.219Z,17.90
2022-08-18T00:11:12.856Z,17.91
2022-08-18T00:13:39.709Z,18.01
2022-08-18T00:16:06.629Z,18.19
2022-08-18T00:18:33.203Z,18.31
2022-08-18T00:21:00.208Z,18.19
2022-08-18T00:23:26.703Z,18.13
2022-08-18T00:25:55.118Z,18.08
2022-08-18T00:28:24.095Z,18.05
2022-08-18T00:30:54.012Z,18.13
2022-08-18T00:33:23.893Z,18.13
2022-08-18T00:35:50.495Z,18.13
2022-08-18T00:38:24.743Z,18.36
2022-08-18T00:40:54.440Z,18.26
2022-08-18T00:43:34.357Z,18.28
2022-08-18T00:46:00.755Z,18.25
2022-08-18T00:48:30.175Z,18.33
2022-08-18T00:50:59.784Z,18.52
2022-08-18T00:53:33.349Z,18.32
2022-08-18T00:56:05.446Z,18.28
2022-08-18T00:58:36.556Z,18.09
2022-08-18T01:01:05.019Z,18.03
2022-08-18T01:03:32.774Z,18.04
2022-08-18T01:06:24.435Z,17.85
2022-08-18T01:08:51.045Z,17.87
2022-08-18T01:11:17.732Z,17.86
2022-08-18T01:13:44.601Z,17.97
2022-08-18T01:16:11.390Z,18.11
2022-08-18T01:18:37.943Z,18.11
2022-08-18T01:21:10.535Z,18.28
2022-08-18T01:23:37.389Z,18.31
2022-08-18T01:26:04.011Z,18.37
2022-08-18T01:28:36.562Z,18.36
2022-08-18T01:31:04.761Z,18.29
2022-08-18T01:33:38.129Z,18.37
2022-08-18T01:36:12.172Z,18.32
2022-08-18T01:38:38.672Z,18.44
2022-08-18T01:41:27.101Z,18.39
2022-08-18T01:43:52.296Z,18.43
2022-08-18T01:46:20.362Z,18.43
2022-08-18T01:48:47.873Z,18.55
2022-08-18T01:51:15.694Z,18.57
2022-08-18T01:53:42.312Z,18.36
2022-08-18T01:56:08.842Z,18.27
2022-08-18T01:58:36.333Z,18.21
2022-08-18T02:01:04.206Z,18.15
2022-08-18T02:03:36.529Z,18.31
2022-08-18T02:06:10.440Z,18.20
2022-08-18T02:08:43.536Z,18.18
2022-08-18T02:11:10.742Z,18.08
2022-08-18T02:13:37.451Z,17.96
2022-08-18T02:16:04.888Z,17.88
2022-08-18T02:18:47.114Z,17.72
2022-08-18T02:21:18.903Z,17.66
2022-08-18T02:23:53.906Z,17.75
2022-08-18T02:26:23.956Z,17.76
2022-08-18T02:28:50.997Z,17.92
2022-08-18T02:31:21.002Z,18.11
2022-08-18T02:33:52.301Z,18.24
2022-08-18T02:36:20.593Z,18.45
2022-08-18T02:38:54.707Z,18.48
2022-08-18T02:41:27.050Z,18.37
2022-08-18T02:43:57.219Z,18.40
2022-08-18T02:46:31.123Z,18.08
2022-08-18T02:48:59.667Z,17.89
2022-08-18T02:51:26.370Z,17.87
2022-08-18T02:53:54.073Z,17.56
2022-08-18T02:56:40.629Z,17.38
2022-08-18T02:59:16.885Z,17.52
2022-08-18T03:01:45.671Z,17.51
2022-08-18T03:04:16.022Z,17.69
2022-08-18T03:06:44.203Z,17.55
2022-08-18T03:09:11.692Z,17.48
2022-08-18T03:11:38.446Z,17.53
2022-08-18T03:14:05.755Z,17.49
2022-08-18T03:16:33.332Z,17.47
2022-08-18T03:19:00.971Z,17.49
2022-08-18T03:21:32.260Z,17.68
2022-08-18T03:24:00.687Z,17.78
2022-08-18T03:26:30.640Z,17.78
2022-08-18T03:28:58.351Z,17.69
2022-08-18T03:31:27.967Z,17.72
2022-08-18T03:33:55.800Z,17.79
2022-08-18T03:36:28.410Z,17.76
2022-08-18T03:38:54.903Z,17.75
2022-08-18T03:41:57.630Z,17.74
2022-08-18T03:44:12.508Z,17.77
2022-08-18T03:46:41.659Z,17.80
2022-08-18T03:49:08.187Z,17.81
2022-08-18T03:51:34.696Z,17.90
2022-08-18T03:54:03.036Z,17.89
2022-08-18T03:56:34.899Z,17.89
2022-08-18T03:59:07.996Z,17.88
2022-08-18T04:01:38.112Z,18.12
2022-08-18T04:04:06.138Z,17.93
2022-08-18T04:06:38.626Z,17.92
2022-08-18T04:09:07.105Z,18.14
2022-08-18T04:11:35.751Z,18.28
2022-08-18T04:14:25.148Z,18.40
2022-08-18T04:16:52.341Z,18.43
2022-08-18T04:19:22.618Z,18.54
2022-08-18T04:21:56.936Z,18.72
2022-08-18T04:24:23.936Z,18.70
2022-08-18T04:26:51.631Z,18.45
2022-08-18T04:29:19.956Z,18.45
2022-08-18T04:31:46.674Z,18.44
2022-08-18T04:34:13.441Z,18.47
2022-08-18T04:36:41.332Z,18.61
2022-08-18T04:39:09.221Z,18.62
2022-08-18T04:41:37.809Z,18.51
2022-08-18T04:44:06.578Z,18.56
2022-08-18T04:46:53.018Z,18.54
2022-08-18T04:49:22.427Z,18.52
2022-08-18T04:52:36.140Z,18.46
2022-08-18T04:54:38.791Z,18.49
2022-08-18T04:57:10.299Z,18.39
2022-08-18T04:59:37.876Z,18.39
2022-08-18T05:02:04.915Z,18.37
2022-08-18T05:04:31.492Z,18.27
2022-08-18T05:06:58.040Z,18.29
2022-08-18T05:09:24.539Z,18.37
2022-08-18T05:11:55.090Z,18.25
2022-08-18T05:14:21.571Z,18.20
2022-08-18T05:16:49.664Z,18.26
2022-08-18T05:19:19.524Z,18.24
2022-08-18T05:21:46.386Z,18.27
2022-08-18T05:24:17.626Z,18.38
2022-08-18T05:26:44.225Z,18.49
2022-08-18T05:29:19.047Z,18.58
2022-08-18T05:31:46.898Z,18.35
2022-08-18T05:34:13.454Z,18.29
2022-08-18T05:36:48.787Z,18.33
2022-08-18T05:39:18.038Z,18.42
2022-08-18T05:41:52.073Z,18.51
2022-08-18T05:44:22.516Z,18.65
2022-08-18T05:46:58.237Z,18.76
2022-08-18T05:49:26.377Z,19.18
2022-08-18T05:51:59.200Z,19.18
2022-08-18T05:54:31.570Z,19.05
2022-08-18T05:57:02.911Z,19.21
2022-08-18T05:59:36.241Z,19.44
2022-08-18T06:02:18.235Z,19.48
2022-08-18T06:04:52.390Z,19.49
2022-08-18T06:07:33.558Z,19.73
2022-08-18T06:10:00.867Z,19.78
2022-08-18T06:12:31.682Z,19.92
2022-08-18T06:15:06.696Z,20.11
2022-08-18T06:17:58.958Z,20.19
2022-08-18T06:21:01.001Z,20.18
2022-08-18T06:23:33.267Z,20.33
2022-08-18T06:26:20.053Z,20.48
2022-08-18T06:29:08.539Z,20.65
2022-08-18T06:32:04.424Z,20.94
2022-08-18T06:35:20.153Z,21.17
2022-08-18T06:37:55.778Z,21.35
2022-08-18T06:40:22.335Z,21.44
2022-08-18T06:42:48.853Z,21.37
2022-08-18T06:45:16.119Z,21.38
2022-08-18T06:48:15.294Z,21.31
2022-08-18T06:50:47.279Z,21.17
2022-08-18T06:53:26.737Z,21.15
2022-08-18T06:55:54.256Z,21.01
2022-08-18T06:58:29.721Z,20.81
2022-08-18T07:01:00.681Z,21.99
2022-08-18T07:03:36.309Z,23.44
2022-08-18T07:06:19.749Z,24.51
2022-08-18T07:08:47.036Z,25.07
2022-08-18T07:11:31.494Z,25.55
2022-08-18T07:14:16.661Z,25.86
2022-08-18T07:17:00.090Z,26.71
2022-08-18T07:19:32.177Z,26.47
2022-08-18T07:22:01.728Z,26.52
2022-08-18T07:24:30.960Z,26.65
2022-08-18T07:27:12.989Z,26.91
2022-08-18T07:30:00.198Z,26.82
2022-08-18T07:32:32.009Z,26.05
2022-08-18T07:35:00.148Z,25.28
2022-08-18T07:37:36.214Z,24.95
2022-08-18T07:40:17.922Z,24.93
2022-08-18T07:42:54.102Z,24.67
2022-08-18T07:45:29.341Z,24.52
2022-08-18T07:48:15.709Z,24.24
2022-08-18T07:51:08.602Z,24.17
2022-08-18T07:53:56.472Z,24.26
2022-08-18T07:56:29.036Z,24.51
2022-08-18T07:59:23.219Z,25.24
2022-08-18T08:02:01.653Z,25.70
2022-08-18T08:04:58.910Z,25.56
2022-08-18T08:07:30.931Z,25.42
2022-08-18T08:10:22.387Z,25.27
2022-08-18T08:13:26.019Z,25.16
2022-08-18T08:16:12.628Z,25.45
2022-08-18T08:19:03.694Z,26.39
2022-08-18T08:21:52.798Z,27.10
2022-08-18T08:24:40.654Z,26.84
2022-08-18T08:27:21.376Z,26.89
2022-08-18T08:30:00.372Z,27.06
2022-08-18T08:32:48.437Z,27.11
2022-08-18T08:35:47.147Z,27.53
2022-08-18T08:38:42.925Z,27.87
2022-08-18T08:41:13.763Z,28.17
2022-08-18T08:43:53.148Z,28.31
2022-08-18T08:46:27.658Z,28.09
2022-08-18T08:49:06.662Z,27.34
2022-08-18T08:51:37.212Z,27.25
2022-08-18T08:54:12.312Z,26.81
2022-08-18T08:56:47.538Z,26.76
2022-08-18T08:59:17.330Z,25.11
2022-08-18T09:01:57.013Z,25.23
2022-08-18T09:04:37.346Z,25.01
2022-08-18T09:07:18.014Z,24.94
2022-08-18T09:10:26.744Z,25.31
2022-08-18T09:13:32.543Z,24.77
2022-08-18T09:16:32.969Z,24.73
2022-08-18T09:19:10.834Z,24.90
2022-08-18T09:22:00.175Z,25.27
2022-08-18T09:24:28.016Z,25.46
2022-08-18T09:27:03.601Z,25.64
2022-08-18T09:29:44.334Z,25.41
2022-08-18T09:32:20.184Z,24.74
2022-08-18T09:37:58.962Z,24.59
2022-08-18T09:46:04.940Z,24.23
2022-08-18T09:51:39.928Z,24.26
2022-08-18T09:54:11.365Z,23.78
2022-08-18T09:57:04.011Z,24.00
2022-08-18T09:59:35.215Z,24.02
2022-08-18T10:02:28.378Z,23.80
2022-08-18T10:05:16.581Z,24.56
2022-08-18T10:07:53.178Z,24.87
2022-08-18T10:11:00.156Z,24.97
2022-08-18T10:14:06.912Z,24.87
2022-08-18T10:17:23.541Z,24.68
2022-08-18T10:20:25.695Z,25.04
2022-08-18T10:22:53.816Z,25.58
2022-08-18T10:25:35.541Z,25.50
2022-08-18T10:28:02.204Z,25.73
2022-08-18T10:30:36.418Z,25.81
2022-08-18T10:34:01.289Z,25.77
2022-08-18T10:36:46.684Z,25.59
2022-08-18T10:39:41.781Z,24.97
2022-08-18T10:42:20.399Z,24.55
2022-08-18T10:44:48.703Z,24.57
2022-08-18T10:47:33.382Z,24.85
2022-08-18T10:50:04.206Z,25.66
2022-08-18T10:52:51.183Z,25.50
2022-08-18T10:55:47.920Z,25.71
2022-08-18T10:58:29.568Z,25.73
2022-08-18T11:01:20.839Z,25.31
2022-08-18T11:04:21.429Z,24.83
2022-08-18T11:06:51.798Z,24.47
2022-08-18T11:09:27.679Z,24.34
2022-08-18T11:11:59.461Z,24.75
2022-08-18T11:14:40.048Z,25.18
2022-08-18T11:17:13.021Z,25.04
2022-08-18T11:19:44.643Z,24.98
2022-08-18T11:22:32.212Z,24.93
2022-08-18T11:25:04.165Z,24.98
2022-08-18T11:27:34.881Z,25.54
2022-08-18T11:30:03.896Z,25.89
2022-08-18T11:32:31.646Z,26.17
2022-08-18T11:34:58.964Z,26.60
2022-08-18T11:37:51.226Z,26.27
2022-08-18T11:43:29.888Z,26.29
2022-08-18T11:46:14.205Z,25.57
2022-08-18T11:48:52.454Z,25.32
2022-08-18T11:51:23.900Z,25.09
2022-08-18T11:53:58.699Z,24.96
2022-08-18T11:56:35.892Z,25.29
2022-08-18T11:59:25.042Z,25.52
2022-08-18T12:02:19.641Z,25.80
2022-08-18T12:04:50.950Z,26.17
2022-08-18T12:07:27.745Z,25.92
2022-08-18T12:10:18.746Z,25.82
2022-08-18T12:12:52.749Z,25.78
2022-08-18T12:15:24.331Z,26.18
2022-08-18T12:17:52.826Z,26.03
2022-08-18T12:20:19.891Z,25.46
2022-08-18T12:22:47.288Z,25.27
2022-08-18T12:25:25.455Z,25.26
2022-08-18T12:27:53.556Z,25.53
2022-08-18T12:30:20.138Z,26.02
2022-08-18T12:33:00.800Z,26.44
2022-08-18T12:35:32.470Z,26.76
2022-08-18T12:38:11.356Z,26.70
2022-08-18T12:40:40.435Z,26.93
2022-08-18T12:43:07.142Z,27.11
2022-08-18T12:45:34.697Z,27.35
2022-08-18T12:48:05.070Z,27.58
2022-08-18T12:50:41.102Z,27.37
2022-08-18T12:53:16.856Z,27.28
2022-08-18T12:55:47.046Z,26.96
2022-08-18T12:58:16.892Z,27.10
2022-08-18T13:00:46.579Z,26.61
2022-08-18T13:03:13.108Z,27.06
2022-08-18T13:05:39.692Z,26.94
2022-08-18T13:08:30.504Z,27.16
2022-08-18T13:11:00.087Z,27.18
2022-08-18T13:13:44.024Z,27.05
2022-08-18T13:16:11.724Z,27.05
2022-08-18T13:18:57.472Z,27.28
2022-08-18T13:21:24.466Z,27.24
2022-08-18T13:23:51.046Z,27.36
2022-08-18T13:26:30.799Z,27.36
2022-08-18T13:28:58.499Z,27.67
2022-08-18T13:31:26.458Z,27.83
2022-08-18T13:33:57.883Z,27.93
2022-08-18T13:36:28.992Z,28.08
2022-08-18T13:38:56.145Z,28.18
2022-08-18T13:41:23.436Z,27.97
2022-08-18T13:43:52.264Z,28.26
2022-08-18T13:46:29.766Z,28.22
2022-08-18T13:48:58.260Z,28.29
2022-08-18T13:51:24.765Z,27.93
2022-08-18T13:54:15.810Z,27.72
2022-08-18T13:56:40.322Z,27.53
2022-08-18T13:59:08.647Z,27.62
2022-08-18T14:01:44.831Z,27.85
2022-08-18T14:04:20.480Z,28.00
2022-08-18T14:06:51.327Z,28.11
2022-08-18T14:09:36.579Z,27.88
2022-08-18T14:12:15.830Z,28.00
2022-08-18T14:14:52.117Z,28.07
2022-08-18T14:17:19.883Z,27.98
2022-08-18T14:19:50.702Z,27.77
2022-08-18T14:22:17.632Z,27.76
2022-08-18T14:24:48.896Z,27.40
2022-08-18T14:27:17.403Z,27.29
2022-08-18T14:29:46.471Z,27.55
2022-08-18T14:32:18.234Z,27.47
2022-08-18T14:34:50.812Z,27.55
2022-08-18T14:37:17.733Z,27.62
2022-08-18T14:39:47.859Z,27.25
2022-08-18T14:42:17.588Z,27.23
2022-08-18T14:44:45.901Z,27.09
2022-08-18T14:47:12.526Z,26.95
2022-08-18T14:49:47.965Z,26.89
2022-08-18T14:52:15.521Z,26.69
2022-08-18T14:54:46.382Z,26.59
2022-08-18T14:57:18.538Z,26.62
2022-08-18T14:59:45.518Z,26.68
2022-08-18T15:02:13.242Z,26.77
2022-08-18T15:04:52.978Z,26.42
2022-08-18T15:07:24.747Z,25.92
2022-08-18T15:09:51.780Z,25.72
2022-08-18T15:12:38.382Z,25.96
2022-08-18T15:15:08.070Z,25.92
2022-08-18T15:17:37.956Z,25.71
2022-08-18T15:20:06.625Z,25.41
2022-08-18T15:22:38.651Z,25.28
2022-08-18T15:25:07.544Z,25.43
2022-08-18T15:27:42.204Z,25.27
2022-08-18T15:30:14.015Z,24.99
2022-08-18T15:32:49.712Z,24.93
2022-08-18T15:35:17.298Z,24.84
2022-08-18T15:37:44.707Z,24.86
2022-08-18T15:40:21.822Z,24.79
2022-08-18T15:43:01.272Z,24.87
2022-08-18T15:45:35.362Z,24.79
2022-08-18T15:48:02.323Z,24.91
2022-08-18T15:50:29.673Z,24.75
2022-08-18T15:52:59.395Z,24.58
2022-08-18T15:55:29.110Z,24.81
2022-08-18T15:58:11.093Z,24.72
2022-08-18T16:00:43.799Z,24.67
2022-08-18T16:03:12.994Z,24.71
2022-08-18T16:05:46.056Z,24.46
2022-08-18T16:08:12.645Z,24.45
2022-08-18T16:10:40.782Z,24.35
2022-08-18T16:13:07.856Z,24.49
2022-08-18T16:15:37.571Z,24.53
2022-08-18T16:18:04.957Z,24.67
2022-08-18T16:20:35.052Z,24.68
2022-08-18T16:23:01.836Z,24.48
2022-08-18T16:25:28.372Z,24.31
2022-08-18T16:27:55.608Z,24.15
2022-08-18T16:30:25.966Z,24.39
2022-08-18T16:32:55.436Z,24.35
2022-08-18T16:35:22.223Z,24.20
2022-08-18T16:37:48.837Z,24.32
2022-08-18T16:40:18.932Z,24.19
2022-08-18T16:42:46.001Z,24.16
2022-08-18T16:45:14.836Z,24.13
2022-08-18T16:47:41.484Z,24.19
2022-08-18T16:50:10.677Z,23.94
2022-08-18T16:52:37.152Z,23.83
2022-08-18T16:55:05.570Z,23.83
2022-08-18T16:57:53.419Z,23.82
2022-08-18T17:00:19.219Z,23.75
2022-08-18T17:02:46.274Z,23.58
2022-08-18T17:05:13.061Z,23.61
2022-08-18T17:07:39.576Z,23.68
2022-08-18T17:10:07.188Z,23.74
2022-08-18T17:12:33.770Z,23.72
2022-08-18T17:15:00.961Z,23.61
2022-08-18T17:17:27.811Z,23.50
2022-08-18T17:19:54.485Z,23.37
2022-08-18T17:22:20.979Z,23.41
2022-08-18T17:24:49.784Z,23.31
2022-08-18T17:27:26.363Z,23.36
2022-08-18T17:30:01.992Z,23.18
2022-08-18T17:32:42.877Z,23.03
2022-08-18T17:35:14.209Z,22.94
2022-08-18T17:37:49.011Z,23.17
2022-08-18T17:40:21.030Z,23.04
2022-08-18T17:42:47.544Z,22.88
2022-08-18T17:45:21.735Z,22.79
2022-08-18T17:47:59.416Z,22.67
2022-08-18T17:50:39.202Z,22.84
2022-08-18T17:53:06.240Z,22.75
2022-08-18T17:55:42.060Z,22.76
2022-08-18T17:58:39.848Z,22.79
2022-08-18T18:01:11.243Z,22.60
2022-08-18T18:03:38.563Z,22.74
2022-08-18T18:06:19.092Z,22.86
2022-08-18T18:08:49.635Z,22.89
2022-08-18T18:11:16.174Z,22.79
2022-08-18T18:13:42.711Z,22.64
2022-08-18T18:16:28.090Z,22.72
2022-08-18T18:19:01.777Z,22.66
2022-08-18T18:21:55.342Z,22.77
2022-08-18T18:24:16.893Z,22.82
2022-08-18T18:26:50.434Z,22.69
2022-08-18T18:29:29.361Z,22.56
2022-08-18T18:32:06.058Z,22.37
2022-08-18T18:34:35.868Z,22.31
2022-08-18T18:37:02.708Z,22.15
2022-08-18T18:39:35.114Z,22.11
2022-08-18T18:42:15.605Z,22.09
2022-08-18T18:44:54.410Z,22.07
2022-08-18T18:47:28.292Z,21.97
2022-08-18T18:50:21.050Z,22.17
2022-08-18T18:53:02.437Z,22.14
2022-08-18T18:55:33.234Z,22.30
2022-08-18T18:58:19.729Z,22.44
2022-08-18T19:00:53.937Z,22.43
2022-08-18T19:03:35.222Z,22.40
2022-08-18T19:06:14.958Z,22.41
2022-08-18T19:09:07.816Z,22.41
2022-08-18T19:11:46.870Z,22.48
2022-08-18T19:14:20.150Z,22.35
2022-08-18T19:16:53.416Z,22.30
2022-08-18T19:19:39.292Z,22.17
2022-08-18T19:22:19.394Z,22.31
2022-08-18T19:24:54.302Z,22.33
2022-08-18T19:27:28.469Z,22.21
2022-08-18T19:29:58.166Z,22.19
2022-08-18T19:32:33.042Z,22.03
2022-08-18T19:34:59.809Z,22.00
2022-08-18T19:37:40.286Z,21.73
2022-08-18T19:40:37.126Z,21.78
2022-08-18T19:43:10.886Z,21.50
2022-08-18T19:45:49.252Z,21.51
2022-08-18T19:48:31.283Z,21.61
2022-08-18T19:51:34.669Z,21.56
2022-08-18T19:54:27.146Z,21.60
2022-08-18T19:57:31.164Z,21.67
2022-08-18T20:00:18.483Z,21.67
2022-08-18T20:02:51.131Z,21.77
2022-08-18T20:05:22.880Z,21.85
2022-08-18T20:08:09.702Z,21.89
2022-08-18T20:11:00.859Z,21.92
2022-08-18T20:13:39.233Z,21.71
2022-08-18T20:16:07.840Z,21.55
2022-08-18T20:18:48.767Z,21.50
2022-08-18T20:21:15.260Z,21.58
2022-08-18T20:24:25.999Z,21.38
2022-08-18T20:26:52.572Z,21.39
2022-08-18T20:29:39.183Z,21.55
2022-08-18T20:32:18.841Z,21.58
2022-08-18T20:34:47.074Z,21.53
2022-08-18T20:37:21.150Z,21.34
2022-08-18T20:39:50.843Z,21.29
2022-08-18T20:42:20.873Z,21.28
2022-08-18T20:44:58.424Z,21.17
2022-08-18T20:47:48.993Z,21.17
2022-08-18T20:50:44.055Z,20.90
2022-08-18T20:53:25.700Z,20.83
2022-08-18T20:56:12.883Z,20.82
2022-08-18T20:59:09.033Z,20.79
2022-08-18T21:01:38.830Z,20.74
2022-08-18T21:04:05.435Z,20.77
2022-08-18T21:06:37.048Z,20.74
2022-08-18T21:09:04.306Z,20.78
2022-08-18T21:11:33.855Z,20.82
2022-08-18T21:14:04.121Z,20.94
2022-08-18T21:16:39.886Z,21.01
2022-08-18T21:19:08.408Z,20.95
2022-08-18T21:21:45.826Z,21.05
2022-08-18T21:24:27.474Z,21.00
2022-08-18T21:27:26.039Z,20.93
2022-08-18T21:29:54.977Z,20.90
2022-08-18T21:32:26.071Z,20.85
2022-08-18T21:34:52.920Z,20.81
2022-08-18T21:37:20.527Z,20.80
2022-08-18T21:39:48.481Z,20.77
2022-08-18T21:42:21.749Z,20.92
2022-08-18T21:44:49.154Z,20.88
2022-08-18T21:47:23.932Z,20.82
2022-08-18T21:50:15.799Z,20.82
2022-08-18T21:53:08.525Z,20.69
2022-08-18T21:55:40.460Z,20.76
2022-08-18T21:58:09.972Z,20.56
2022-08-18T22:00:39.774Z,20.30
2022-08-18T22:03:25.900Z,20.13
2022-08-18T22:05:59.022Z,19.84
2022-08-18T22:08:29.623Z,19.33
2022-08-18T22:11:07.311Z,19.07
2022-08-18T22:13:46.576Z,18.94
2022-08-18T22:16:29.805Z,18.72
2022-08-18T22:19:14.719Z,18.72
2022-08-18T22:21:43.495Z,18.73
2022-08-18T22:24:15.773Z,18.77
2022-08-18T22:26:42.494Z,18.77
2022-08-18T22:29:24.334Z,18.61
2022-08-18T22:31:52.173Z,18.54
2022-08-18T22:34:29.908Z,18.52
2022-08-18T22:37:04.100Z,18.66
2022-08-18T22:39:38.753Z,18.72
2022-08-18T22:42:07.117Z,18.66
2022-08-18T22:44:34.182Z,18.71
2022-08-18T22:47:00.707Z,18.78
2022-08-18T22:49:27.267Z,18.76
2022-08-18T22:51:55.086Z,18.76
2022-08-18T22:54:22.982Z,18.91
2022-08-18T22:56:56.518Z,18.92
2022-08-18T22:59:24.564Z,18.75
2022-08-18T23:01:56.735Z,18.73
2022-08-18T23:04:24.524Z,18.62
2022-08-18T23:06:52.659Z,18.65
2022-08-18T23:09:21.262Z,18.62
2022-08-18T23:11:47.929Z,18.57
2022-08-18T23:14:14.521Z,18.59
2022-08-18T23:16:41.058Z,18.54
2022-08-18T23:19:07.548Z,18.51
2022-08-18T23:21:35.756Z,18.50
2022-08-18T23:24:04.577Z,18.53
2022-08-18T23:26:31.068Z,18.60
2022-08-18T23:28:57.701Z,18.67
2022-08-18T23:31:24.211Z,18.54
2022-08-18T23:33:50.710Z,18.43
2022-08-18T23:36:17.326Z,18.51
2022-08-18T23:38:44.235Z,18.50
2022-08-18T23:41:12.711Z,18.38
2022-08-18T23:43:39.404Z,18.27
2022-08-18T23:46:06.078Z,18.19
2022-08-18T23:48:32.586Z,18.12
2022-08-18T23:50:59.111Z,18.10
2022-08-18T23:53:25.650Z,18.01
2022-08-18T23:55:52.117Z,17.98
2022-08-18T23:58:18.611Z,18.05
